createdAt,value
2023-03-12T00:01:30.309Z,75.73
2023-03-12T00:04:03.111Z,76.48
2023-03-12T00:06:32.696Z,76.24
2023-03-12T00:09:03.910Z,77.07
2023-03-12T00:11:33.038Z,77.00
2023-03-12T00:14:02.333Z,76.77
2023-03-12T00:16:31.219Z,77.26
2023-03-12T00:19:02.294Z,77.53
2023-03-12T00:21:31.049Z,77.69
2023-03-12T00:24:00.326Z,78.36
2023-03-12T00:26:29.351Z,77.99
2023-03-12T00:28:58.549Z,78.78
2023-03-12T00:31:31.911Z,79.06
2023-03-12T00:34:03.864Z,78.73
2023-03-12T00:36:34.334Z,79.25
2023-03-12T00:39:04.083Z,79.33
2023-03-12T00:41:32.935Z,79.79
2023-03-12T00:44:02.195Z,79.59
2023-03-12T00:46:31.240Z,80.03
2023-03-12T00:49:01.691Z,79.83
2023-03-12T00:51:30.532Z,79.79
2023-03-12T00:53:59.702Z,80.04
2023-03-12T00:56:28.514Z,79.81
2023-03-12T00:58:58.190Z,79.79
2023-03-12T01:01:27.691Z,79.71
2023-03-12T01:03:58.370Z,79.85
2023-03-12T01:06:28.617Z,79.91
2023-03-12T01:08:57.893Z,79.79
2023-03-12T01:11:26.907Z,79.35
2023-03-12T01:13:55.994Z,79.44
2023-03-12T01:16:28.258Z,78.88
2023-03-12T01:18:58.395Z,79.25
2023-03-12T01:21:31.055Z,79.27
2023-03-12T01:24:00.266Z,78.86
2023-03-12T01:26:29.463Z,78.80
2023-03-12T01:28:58.533Z,78.66
2023-03-12T01:31:27.561Z,78.96
2023-03-12T01:33:56.750Z,78.66
2023-03-12T01:36:29.853Z,78.11
2023-03-12T01:39:00.689Z,78.01
2023-03-12T01:41:33.173Z,77.96
2023-03-12T01:44:04.658Z,77.80
2023-03-12T01:46:36.503Z,77.71
2023-03-12T01:49:15.480Z,77.44
2023-03-12T01:51:51.160Z,77.92
2023-03-12T01:54:26.933Z,77.75
2023-03-12T01:56:58.167Z,77.81
2023-03-12T01:59:34.051Z,77.55
2023-03-12T02:02:04.902Z,77.23
2023-03-12T02:04:35.813Z,77.16
2023-03-12T02:07:10.514Z,77.08
2023-03-12T02:09:44.651Z,77.51
2023-03-12T02:12:14.487Z,77.06
2023-03-12T02:14:44.446Z,76.86
2023-03-12T02:17:13.734Z,76.66
2023-03-12T02:19:56.368Z,76.64
2023-03-12T02:22:27.081Z,76.77
2023-03-12T02:25:05.463Z,76.55
2023-03-12T02:27:38.992Z,76.73
2023-03-12T02:30:15.189Z,77.17
2023-03-12T02:32:47.765Z,76.92
2023-03-12T02:35:18.632Z,77.09
2023-03-12T02:37:53.800Z,76.55
2023-03-12T02:40:30.687Z,76.93
2023-03-12T02:43:03.399Z,76.57
2023-03-12T02:45:34.163Z,76.23
2023-03-12T02:48:03.865Z,76.22
2023-03-12T02:50:32.945Z,76.44
2023-03-12T02:53:02.104Z,76.59
2023-03-12T02:55:31.241Z,76.33
2023-03-12T02:58:01.568Z,76.25
2023-03-12T03:00:32.878Z,76.65
2023-03-12T03:03:02.552Z,76.40
2023-03-12T03:05:31.830Z,76.37
2023-03-12T03:08:00.844Z,76.65
2023-03-12T03:10:30.552Z,76.26
2023-03-12T03:13:01.434Z,75.95
2023-03-12T03:15:30.655Z,76.24
2023-03-12T03:17:59.767Z,75.84
2023-03-12T03:20:28.826Z,76.37
2023-03-12T03:22:57.850Z,76.53
2023-03-12T03:25:27.207Z,76.21
2023-03-12T03:27:56.287Z,75.78
2023-03-12T03:30:26.736Z,75.90
2023-03-12T03:32:56.377Z,75.97
2023-03-12T03:35:26.032Z,76.16
2023-03-12T03:37:55.003Z,76.02
2023-03-12T03:40:24.106Z,75.40
2023-03-12T03:42:52.960Z,76.19
2023-03-12T03:45:22.214Z,75.91
2023-03-12T03:47:52.674Z,75.88
2023-03-12T03:50:22.060Z,75.28
2023-03-12T03:52:51.754Z,75.48
2023-03-12T03:55:20.954Z,75.88
2023-03-12T03:57:50.156Z,76.18
2023-03-12T04:00:20.381Z,75.95
2023-03-12T04:02:52.325Z,75.73
2023-03-12T04:05:21.758Z,76.22
2023-03-12T04:07:54.584Z,75.52
2023-03-12T04:10:26.597Z,76.10
2023-03-12T04:12:55.384Z,76.01
2023-03-12T04:15:25.218Z,76.15
2023-03-12T04:17:55.379Z,75.87
2023-03-12T04:20:25.153Z,76.29
2023-03-12T04:22:54.033Z,76.11
2023-03-12T04:25:23.163Z,76.01
2023-03-12T04:27:52.081Z,75.79
2023-03-12T04:30:21.734Z,75.88
2023-03-12T04:32:50.802Z,76.27
2023-03-12T04:35:21.828Z,76.09
2023-03-12T04:37:50.674Z,76.02
2023-03-12T04:40:20.549Z,76.60
2023-03-12T04:42:49.853Z,76.10
2023-03-12T04:45:19.163Z,76.68
2023-03-12T04:47:48.996Z,76.33
2023-03-12T04:50:20.275Z,76.24
2023-03-12T04:52:49.124Z,75.81
2023-03-12T04:55:18.680Z,76.12
2023-03-12T04:57:47.535Z,76.06
2023-03-12T05:00:17.685Z,76.19
2023-03-12T05:02:47.876Z,75.56
2023-03-12T05:05:17.115Z,75.90
2023-03-12T05:07:47.478Z,75.98
2023-03-12T05:10:16.858Z,75.87
2023-03-12T05:12:45.876Z,75.95
2023-03-12T05:15:17.788Z,76.48
2023-03-12T05:17:46.714Z,76.56
2023-03-12T05:20:17.704Z,76.68
2023-03-12T05:22:49.681Z,76.79
2023-03-12T05:25:19.306Z,76.53
2023-03-12T05:27:48.361Z,76.81
2023-03-12T05:30:18.136Z,76.38
2023-03-12T05:32:47.048Z,76.83
2023-03-12T05:35:17.004Z,76.95
2023-03-12T05:37:48.976Z,76.72
2023-03-12T05:40:18.357Z,76.10
2023-03-12T05:42:47.262Z,76.18
2023-03-12T05:45:16.494Z,76.23
2023-03-12T05:47:49.171Z,75.86
2023-03-12T05:50:19.413Z,75.98
2023-03-12T05:52:49.759Z,76.41
2023-03-12T05:55:19.561Z,76.01
2023-03-12T05:57:49.106Z,76.07
2023-03-12T06:00:19.801Z,75.80
2023-03-12T06:02:55.989Z,75.67
2023-03-12T06:05:25.353Z,76.03
2023-03-12T06:07:55.580Z,75.35
2023-03-12T06:10:24.777Z,75.31
2023-03-12T06:12:53.631Z,75.38
2023-03-12T06:15:23.099Z,75.53
2023-03-12T06:17:52.314Z,75.44
2023-03-12T06:20:21.751Z,75.46
2023-03-12T06:22:50.804Z,74.95
2023-03-12T06:25:21.348Z,74.82
2023-03-12T06:27:50.147Z,74.73
2023-03-12T06:30:19.602Z,74.61
2023-03-12T06:32:48.667Z,74.59
2023-03-12T06:35:17.959Z,74.74
2023-03-12T06:37:46.744Z,74.34
2023-03-12T06:40:15.853Z,74.01
2023-03-12T06:42:46.006Z,74.47
2023-03-12T06:45:15.057Z,74.54
2023-03-12T06:47:43.921Z,74.51
2023-03-12T06:50:13.241Z,74.47
2023-03-12T06:52:42.058Z,74.93
2023-03-12T06:55:11.521Z,75.67
2023-03-12T06:57:40.400Z,75.44
2023-03-12T07:00:13.204Z,74.92
2023-03-12T07:02:42.147Z,75.12
2023-03-12T07:05:11.647Z,75.56
2023-03-12T07:07:40.498Z,75.48
2023-03-12T07:10:12.220Z,76.05
2023-03-12T07:12:41.060Z,76.71
2023-03-12T07:15:12.752Z,76.90
2023-03-12T07:17:41.969Z,76.56
2023-03-12T07:20:13.298Z,76.69
2023-03-12T07:22:42.278Z,75.84
2023-03-12T07:25:12.108Z,75.26
2023-03-12T07:27:40.951Z,75.41
2023-03-12T07:30:13.462Z,73.99
2023-03-12T07:32:42.852Z,73.35
2023-03-12T07:35:12.210Z,72.89
2023-03-12T07:37:41.212Z,71.60
2023-03-12T07:40:12.433Z,70.69
2023-03-12T07:42:41.193Z,70.19
2023-03-12T07:45:12.617Z,68.98
2023-03-12T07:47:41.517Z,68.32
2023-03-12T07:50:12.643Z,66.75
2023-03-12T07:52:41.685Z,65.79
2023-03-12T07:55:12.327Z,64.97
2023-03-12T07:57:41.453Z,66.02
2023-03-12T08:00:14.008Z,65.72
2023-03-12T08:02:43.030Z,65.25
2023-03-12T08:05:12.463Z,64.25
2023-03-12T08:07:41.486Z,63.18
2023-03-12T08:10:12.824Z,62.07
2023-03-12T08:12:41.606Z,60.77
2023-03-12T08:15:13.548Z,60.59
2023-03-12T08:17:42.844Z,61.41
2023-03-12T08:20:13.759Z,61.84
2023-03-12T08:22:42.639Z,62.37
2023-03-12T08:25:12.827Z,62.87
2023-03-12T08:27:41.701Z,63.63
2023-03-12T08:30:14.055Z,64.12
2023-03-12T08:32:42.893Z,64.69
2023-03-12T08:35:12.362Z,64.39
2023-03-12T08:37:41.547Z,64.96
2023-03-12T08:40:13.422Z,63.65
2023-03-12T08:42:44.047Z,62.33
2023-03-12T08:45:15.881Z,62.68
2023-03-12T08:47:45.117Z,63.38
2023-03-12T08:50:16.894Z,63.34
2023-03-12T08:52:45.818Z,63.27
2023-03-12T08:55:15.512Z,63.12
2023-03-12T08:57:44.414Z,60.97
2023-03-12T09:00:18.060Z,59.12
2023-03-12T09:02:49.979Z,56.42
2023-03-12T09:05:19.411Z,54.87
2023-03-12T09:07:50.087Z,53.71
2023-03-12T09:10:19.448Z,53.64
2023-03-12T09:12:48.320Z,53.27
2023-03-12T09:15:19.310Z,52.76
2023-03-12T09:17:48.560Z,53.59
2023-03-12T09:20:17.682Z,53.97
2023-03-12T09:22:46.848Z,53.76
2023-03-12T09:25:17.134Z,53.06
2023-03-12T09:27:48.576Z,51.74
2023-03-12T09:30:22.070Z,52.42
2023-03-12T09:32:50.902Z,52.33
2023-03-12T09:35:20.137Z,52.23
2023-03-12T09:37:51.464Z,51.49
2023-03-12T09:40:25.060Z,49.78
2023-03-12T09:42:58.995Z,53.00
2023-03-12T09:45:37.167Z,54.13
2023-03-12T09:48:13.402Z,53.55
2023-03-12T09:50:46.850Z,52.82
2023-03-12T09:53:29.419Z,50.15
2023-03-12T09:56:03.698Z,48.43
2023-03-12T09:58:36.134Z,49.58
2023-03-12T10:01:31.700Z,49.44
2023-03-12T10:04:37.793Z,49.66
2023-03-12T10:07:21.882Z,49.80
2023-03-12T10:10:14.438Z,48.50
2023-03-12T10:13:03.638Z,50.13
2023-03-12T10:15:45.930Z,52.09
2023-03-12T10:18:36.876Z,50.50
2023-03-12T10:21:21.474Z,50.18
2023-03-12T10:24:16.678Z,50.42
2023-03-12T10:26:51.589Z,50.20
2023-03-12T10:29:25.399Z,45.29
2023-03-12T10:32:01.821Z,45.22
2023-03-12T10:34:41.318Z,46.01
2023-03-12T10:37:22.262Z,45.85
2023-03-12T10:39:52.738Z,44.67
2023-03-12T10:42:24.014Z,45.58
2023-03-12T10:44:57.546Z,46.71
2023-03-12T10:47:36.797Z,46.71
2023-03-12T10:50:18.238Z,47.92
2023-03-12T10:52:49.378Z,48.48
2023-03-12T10:55:26.361Z,47.56
2023-03-12T10:57:55.484Z,48.04
2023-03-12T11:00:27.920Z,45.90
2023-03-12T11:03:04.418Z,45.01
2023-03-12T11:05:37.960Z,43.05
2023-03-12T11:08:24.227Z,43.50
2023-03-12T11:10:53.384Z,43.23
2023-03-12T11:13:32.274Z,43.10
2023-03-12T11:16:04.267Z,40.98
2023-03-12T11:18:36.197Z,40.78
2023-03-12T11:21:20.065Z,42.58
2023-03-12T11:24:09.975Z,42.77
2023-03-12T11:26:50.674Z,44.14
2023-03-12T11:29:28.138Z,43.95
2023-03-12T11:32:18.551Z,44.21
2023-03-12T11:34:49.680Z,43.13
2023-03-12T11:37:32.585Z,43.29
2023-03-12T11:40:22.136Z,44.30
2023-03-12T11:43:29.258Z,44.21
2023-03-12T11:46:24.074Z,44.51
2023-03-12T11:49:20.310Z,44.13
2023-03-12T11:51:58.337Z,44.15
2023-03-12T11:55:15.826Z,45.09
2023-03-12T11:58:11.184Z,44.76
2023-03-12T12:00:52.067Z,46.02
2023-03-12T12:04:11.051Z,45.45
2023-03-12T12:06:59.149Z,46.05
2023-03-12T12:09:43.920Z,44.11
2023-03-12T12:12:53.009Z,41.78
2023-03-12T12:15:37.508Z,42.98
2023-03-12T12:18:32.259Z,43.69
2023-03-12T12:21:09.957Z,44.18
2023-03-12T12:23:54.762Z,44.41
2023-03-12T12:26:36.776Z,44.22
2023-03-12T12:29:31.755Z,43.92
2023-03-12T12:32:03.408Z,44.34
2023-03-12T12:35:05.922Z,44.03
2023-03-12T12:37:55.434Z,44.19
2023-03-12T12:40:32.306Z,44.22
2023-03-12T12:43:19.889Z,44.35
2023-03-12T12:45:53.137Z,44.00
2023-03-12T12:48:28.127Z,44.03
2023-03-12T12:51:00.154Z,44.04
2023-03-12T12:53:42.109Z,45.22
2023-03-12T12:56:22.612Z,44.40
2023-03-12T12:59:25.192Z,44.57
2023-03-12T13:01:57.138Z,44.48
2023-03-12T13:04:31.793Z,44.04
2023-03-12T13:07:27.607Z,44.00
2023-03-12T13:09:59.160Z,44.48
2023-03-12T13:12:34.820Z,44.55
2023-03-12T13:15:40.872Z,43.52
2023-03-12T13:18:22.967Z,43.30
2023-03-12T13:21:22.365Z,44.51
2023-03-12T13:24:07.515Z,44.58
2023-03-12T13:26:54.757Z,45.53
2023-03-12T13:29:39.789Z,45.46
2023-03-12T13:32:55.101Z,45.23
2023-03-12T13:35:37.309Z,45.08
2023-03-12T13:38:12.850Z,44.98
2023-03-12T13:41:03.141Z,45.01
2023-03-12T13:43:54.629Z,44.23
2023-03-12T13:46:37.857Z,44.68
2023-03-12T13:49:18.907Z,44.67
2023-03-12T13:52:02.287Z,44.38
2023-03-12T13:54:41.670Z,43.64
2023-03-12T13:57:27.410Z,44.29
2023-03-12T13:59:59.709Z,45.09
2023-03-12T14:02:34.593Z,45.07
2023-03-12T14:05:09.600Z,44.64
2023-03-12T14:08:17.301Z,45.03
2023-03-12T14:11:09.444Z,44.44
2023-03-12T14:14:09.184Z,44.32
2023-03-12T14:16:45.967Z,43.20
2023-03-12T14:19:17.425Z,44.33
2023-03-12T14:21:52.226Z,43.88
2023-03-12T14:24:28.832Z,43.89
2023-03-12T14:26:59.339Z,44.43
2023-03-12T14:29:36.747Z,44.56
2023-03-12T14:32:15.266Z,45.03
2023-03-12T14:34:50.497Z,44.91
2023-03-12T14:37:26.262Z,44.60
2023-03-12T14:40:01.632Z,44.90
2023-03-12T14:42:34.650Z,45.70
2023-03-12T14:45:12.955Z,45.45
2023-03-12T14:47:42.280Z,46.32
2023-03-12T14:50:19.860Z,46.14
2023-03-12T14:52:50.182Z,46.31
2023-03-12T14:55:24.364Z,46.48
2023-03-12T14:58:06.811Z,47.01
2023-03-12T15:00:36.043Z,46.72
2023-03-12T15:03:16.005Z,47.05
2023-03-12T15:05:48.288Z,46.82
2023-03-12T15:08:19.828Z,47.14
2023-03-12T15:10:52.409Z,47.97
2023-03-12T15:13:24.419Z,48.06
2023-03-12T15:15:56.574Z,47.89
2023-03-12T15:18:30.509Z,47.72
2023-03-12T15:21:03.639Z,47.74
2023-03-12T15:23:38.881Z,46.74
2023-03-12T15:26:27.339Z,47.75
2023-03-12T15:28:58.731Z,47.24
2023-03-12T15:31:28.688Z,47.09
2023-03-12T15:34:04.491Z,47.50
2023-03-12T15:36:35.936Z,47.55
2023-03-12T15:39:26.492Z,47.27
2023-03-12T15:42:01.218Z,47.38
2023-03-12T15:44:43.804Z,47.93
2023-03-12T15:47:16.609Z,47.50
2023-03-12T15:49:52.994Z,47.91
2023-03-12T15:52:32.236Z,48.39
2023-03-12T15:55:07.126Z,48.32
2023-03-12T15:57:46.444Z,48.22
2023-03-12T16:00:24.761Z,48.44
2023-03-12T16:02:58.048Z,48.22
2023-03-12T16:05:31.843Z,48.83
2023-03-12T16:08:11.850Z,49.05
2023-03-12T16:10:42.608Z,49.48
2023-03-12T16:13:16.960Z,49.11
2023-03-12T16:15:47.754Z,48.11
2023-03-12T16:18:19.886Z,48.76
2023-03-12T16:20:50.911Z,48.59
2023-03-12T16:23:21.171Z,48.53
2023-03-12T16:25:55.783Z,48.50
2023-03-12T16:28:26.018Z,48.62
2023-03-12T16:30:55.731Z,49.40
2023-03-12T16:33:26.088Z,49.49
2023-03-12T16:35:55.858Z,49.33
2023-03-12T16:38:25.160Z,49.82
2023-03-12T16:40:55.835Z,50.32
2023-03-12T16:43:29.197Z,50.46
2023-03-12T16:45:58.236Z,50.55
2023-03-12T16:48:27.491Z,51.04
2023-03-12T16:50:58.939Z,51.89
2023-03-12T16:53:28.688Z,52.09
2023-03-12T16:56:02.581Z,52.58
2023-03-12T16:58:32.217Z,52.70
2023-03-12T17:01:01.224Z,53.22
2023-03-12T17:03:36.472Z,53.58
2023-03-12T17:06:20.561Z,54.16
2023-03-12T17:08:51.170Z,54.82
2023-03-12T17:11:24.666Z,54.87
2023-03-12T17:13:58.624Z,55.27
2023-03-12T17:16:28.082Z,55.21
2023-03-12T17:18:57.993Z,55.99
2023-03-12T17:21:26.902Z,55.46
2023-03-12T17:23:55.980Z,56.21
2023-03-12T17:26:26.210Z,56.93
2023-03-12T17:28:55.279Z,57.31
2023-03-12T17:31:26.739Z,57.26
2023-03-12T17:33:55.916Z,57.53
2023-03-12T17:36:24.747Z,57.59
2023-03-12T17:38:53.792Z,57.97
2023-03-12T17:41:26.789Z,58.47
2023-03-12T17:44:01.604Z,57.86
2023-03-12T17:46:32.229Z,58.36
2023-03-12T17:49:01.736Z,59.13
2023-03-12T17:51:30.535Z,58.67
2023-03-12T17:53:59.665Z,59.04
2023-03-12T17:56:28.540Z,59.47
2023-03-12T17:58:59.046Z,59.61
2023-03-12T18:01:27.969Z,59.86
2023-03-12T18:03:57.055Z,59.78
2023-03-12T18:06:26.545Z,59.36
2023-03-12T18:08:55.643Z,59.73
2023-03-12T18:11:24.480Z,59.35
2023-03-12T18:13:53.632Z,59.39
2023-03-12T18:16:24.105Z,59.33
2023-03-12T18:18:53.258Z,59.74
2023-03-12T18:21:22.096Z,59.45
2023-03-12T18:23:51.213Z,59.89
2023-03-12T18:26:20.106Z,59.91
2023-03-12T18:28:50.487Z,60.20
2023-03-12T18:31:19.357Z,60.36
2023-03-12T18:33:49.884Z,60.14
2023-03-12T18:36:18.698Z,60.40
2023-03-12T18:38:48.032Z,59.81
2023-03-12T18:41:17.054Z,59.90
2023-03-12T18:43:46.168Z,60.08
2023-03-12T18:46:15.124Z,59.88
2023-03-12T18:48:44.613Z,60.12
2023-03-12T18:51:14.818Z,60.41
2023-03-12T18:53:46.061Z,60.97
2023-03-12T18:56:15.737Z,61.03
2023-03-12T18:58:44.824Z,60.84
2023-03-12T19:01:14.033Z,60.60
2023-03-12T19:03:43.170Z,61.31
2023-03-12T19:06:16.661Z,60.88
2023-03-12T19:08:45.802Z,61.06
2023-03-12T19:11:16.885Z,61.40
2023-03-12T19:13:49.508Z,61.23
2023-03-12T19:16:21.945Z,61.25
2023-03-12T19:18:52.079Z,61.88
2023-03-12T19:21:22.688Z,61.42
2023-03-12T19:23:52.483Z,61.33
2023-03-12T19:26:21.412Z,61.24
2023-03-12T19:28:50.492Z,61.32
2023-03-12T19:31:19.428Z,61.53
2023-03-12T19:33:48.608Z,61.67
2023-03-12T19:36:17.497Z,61.54
2023-03-12T19:38:48.125Z,61.79
2023-03-12T19:41:17.467Z,61.22
2023-03-12T19:43:47.133Z,61.69
2023-03-12T19:46:16.026Z,62.03
2023-03-12T19:48:45.118Z,61.34
2023-03-12T19:51:14.053Z,61.42
2023-03-12T19:53:43.734Z,61.51
2023-03-12T19:56:14.086Z,61.38
2023-03-12T19:58:43.263Z,61.26
2023-03-12T20:01:12.102Z,62.03
2023-03-12T20:03:43.870Z,61.03
2023-03-12T20:06:14.069Z,60.95
2023-03-12T20:08:44.581Z,61.02
2023-03-12T20:11:14.937Z,60.58
2023-03-12T20:13:44.133Z,60.90
2023-03-12T20:16:13.943Z,61.01
2023-03-12T20:18:43.059Z,60.83
2023-03-12T20:21:12.296Z,61.05
2023-03-12T20:23:41.481Z,61.13
2023-03-12T20:26:10.516Z,61.30
2023-03-12T20:28:40.984Z,61.22
2023-03-12T20:31:11.312Z,61.27
2023-03-12T20:33:40.740Z,61.63
2023-03-12T20:36:12.725Z,62.21
2023-03-12T20:38:42.392Z,62.97
2023-03-12T20:41:14.586Z,62.90
2023-03-12T20:43:46.332Z,63.14
2023-03-12T20:46:15.220Z,64.00
2023-03-12T20:48:44.338Z,64.23
2023-03-12T20:51:13.140Z,64.12
2023-03-12T20:53:42.695Z,64.53
2023-03-12T20:56:12.397Z,64.91
2023-03-12T20:58:41.525Z,64.80
2023-03-12T21:01:12.187Z,64.74
2023-03-12T21:03:41.291Z,64.79
2023-03-12T21:06:10.099Z,65.22
2023-03-12T21:08:39.184Z,65.24
2023-03-12T21:11:09.232Z,65.38
2023-03-12T21:13:38.317Z,65.44
2023-03-12T21:16:08.712Z,65.37
2023-03-12T21:18:39.303Z,65.49
2023-03-12T21:21:09.958Z,65.40
2023-03-12T21:23:39.608Z,65.64
2023-03-12T21:26:09.791Z,65.61
2023-03-12T21:28:39.004Z,65.77
2023-03-12T21:31:10.674Z,65.86
2023-03-12T21:33:41.367Z,66.68
2023-03-12T21:36:13.767Z,66.98
2023-03-12T21:38:43.873Z,66.58
2023-03-12T21:41:15.526Z,66.76
2023-03-12T21:43:46.743Z,67.01
2023-03-12T21:46:18.870Z,67.06
2023-03-12T21:48:49.930Z,67.47
2023-03-12T21:51:19.705Z,67.50
2023-03-12T21:53:48.795Z,67.95
2023-03-12T21:56:17.948Z,68.31
2023-03-12T21:58:47.013Z,68.28
2023-03-12T22:01:19.103Z,67.81
2023-03-12T22:03:49.672Z,67.65
2023-03-12T22:06:18.820Z,67.32
2023-03-12T22:08:49.238Z,67.62
2023-03-12T22:11:18.378Z,67.48
2023-03-12T22:13:47.533Z,67.23
2023-03-12T22:16:17.238Z,67.63
2023-03-12T22:18:47.697Z,67.69
2023-03-12T22:21:20.902Z,68.05
2023-03-12T22:23:52.472Z,68.07
2023-03-12T22:26:22.605Z,68.14
2023-03-12T22:28:53.569Z,68.01
2023-03-12T22:31:24.721Z,68.27
2023-03-12T22:33:54.334Z,67.67
2023-03-12T22:36:25.020Z,67.85
2023-03-12T22:38:54.586Z,67.63
2023-03-12T22:41:25.734Z,68.14
2023-03-12T22:43:57.717Z,67.84
2023-03-12T22:46:27.765Z,68.06
2023-03-12T22:48:59.597Z,67.92
2023-03-12T22:51:32.505Z,67.65
2023-03-12T22:54:01.780Z,68.47
2023-03-12T22:56:31.078Z,68.57
2023-03-12T22:59:00.227Z,68.71
2023-03-12T23:01:29.060Z,68.53
2023-03-12T23:03:59.776Z,68.75
2023-03-12T23:06:30.548Z,68.37
2023-03-12T23:09:00.642Z,68.98
2023-03-12T23:11:30.994Z,68.60
2023-03-12T23:14:00.158Z,68.00
2023-03-12T23:16:29.091Z,67.90
2023-03-12T23:18:58.139Z,68.05
2023-03-12T23:21:27.232Z,67.93
2023-03-12T23:23:57.634Z,67.29
2023-03-12T23:26:28.923Z,68.47
2023-03-12T23:28:59.931Z,67.88
2023-03-12T23:31:30.655Z,67.37
2023-03-12T23:33:59.769Z,67.07
2023-03-12T23:36:28.844Z,67.41
2023-03-12T23:38:59.350Z,67.05
2023-03-12T23:41:30.403Z,66.94
2023-03-12T23:44:00.444Z,67.07
2023-03-12T23:46:29.606Z,66.87
2023-03-12T23:48:59.380Z,66.78
2023-03-12T23:51:31.201Z,66.10
2023-03-12T23:54:05.293Z,66.66
2023-03-12T23:56:37.758Z,66.70
2023-03-12T23:59:10.030Z,66.29
